sensor_id;sensor_type;location;lat;lon;timestamp;P1;durP1;ratioP1;P2;durP2;ratioP2
48941;SDS011;35340;52.378;4.648;2022-08-21T00:01:50;5.07;;;2.53;;
48941;SDS011;35340;52.378;4.648;2022-08-21T00:04:15;6.40;;;2.22;;
48941;SDS011;35340;52.378;4.648;2022-08-21T00:06:40;6.70;;;2.58;;
48941;SDS011;35340;52.378;4.648;2022-08-21T00:09:06;4.78;;;2.20;;
48941;SDS011;35340;52.378;4.648;2022-08-21T00:11:33;5.00;;;2.50;;
48941;SDS011;35340;52.378;4.648;2022-08-21T00:14:00;5.13;;;2.25;;
48941;SDS011;35340;52.378;4.648;2022-08-21T00:16:25;4.63;;;2.22;;
48941;SDS011;35340;52.378;4.648;2022-08-21T00:18:51;5.45;;;2.70;;
48941;SDS011;35340;52.378;4.648;2022-08-21T00:21:16;5.80;;;2.22;;
48941;SDS011;35340;52.378;4.648;2022-08-21T00:23:41;6.13;;;2.55;;
48941;SDS011;35340;52.378;4.648;2022-08-21T00:26:07;6.85;;;2.85;;
48941;SDS011;35340;52.378;4.648;2022-08-21T00:28:32;6.00;;;2.30;;
48941;SDS011;35340;52.378;4.648;2022-08-21T00:30:58;4.70;;;2.30;;
48941;SDS011;35340;52.378;4.648;2022-08-21T00:33:24;4.43;;;2.28;;
48941;SDS011;35340;52.378;4.648;2022-08-21T00:35:50;5.88;;;2.50;;
48941;SDS011;35340;52.378;4.648;2022-08-21T00:38:16;4.63;;;2.40;;
48941;SDS011;35340;52.378;4.648;2022-08-21T00:40:43;7.90;;;2.67;;
48941;SDS011;35340;52.378;4.648;2022-08-21T00:43:20;5.90;;;2.20;;
48941;SDS011;35340;52.378;4.648;2022-08-21T00:45:48;5.82;;;2.35;;
48941;SDS011;35340;52.378;4.648;2022-08-21T00:48:14;7.65;;;2.80;;
48941;SDS011;35340;52.378;4.648;2022-08-21T00:50:44;5.53;;;2.30;;
48941;SDS011;35340;52.378;4.648;2022-08-21T00:53:15;7.72;;;2.65;;
48941;SDS011;35340;52.378;4.648;2022-08-21T00:55:41;6.68;;;2.58;;
48941;SDS011;35340;52.378;4.648;2022-08-21T00:58:09;4.53;;;2.40;;
48941;SDS011;35340;52.378;4.648;2022-08-21T01:00:38;4.45;;;2.20;;
48941;SDS011;35340;52.378;4.648;2022-08-21T01:03:07;5.40;;;2.65;;
48941;SDS011;35340;52.378;4.648;2022-08-21T01:05:35;5.18;;;2.25;;
48941;SDS011;35340;52.378;4.648;2022-08-21T01:08:01;5.70;;;2.40;;
48941;SDS011;35340;52.378;4.648;2022-08-21T01:10:31;5.90;;;2.55;;
48941;SDS011;35340;52.378;4.648;2022-08-21T01:12:57;4.80;;;2.30;;
48941;SDS011;35340;52.378;4.648;2022-08-21T01:15:24;6.15;;;2.40;;
48941;SDS011;35340;52.378;4.648;2022-08-21T01:17:55;5.45;;;2.40;;
48941;SDS011;35340;52.378;4.648;2022-08-21T01:20:22;5.55;;;2.40;;
48941;SDS011;35340;52.378;4.648;2022-08-21T01:22:47;6.20;;;2.33;;
48941;SDS011;35340;52.378;4.648;2022-08-21T01:25:13;7.53;;;2.80;;
48941;SDS011;35340;52.378;4.648;2022-08-21T01:27:41;4.88;;;2.20;;
48941;SDS011;35340;52.378;4.648;2022-08-21T01:30:12;6.15;;;2.50;;
48941;SDS011;35340;52.378;4.648;2022-08-21T01:32:40;6.35;;;2.33;;
48941;SDS011;35340;52.378;4.648;2022-08-21T01:35:06;6.22;;;2.67;;
48941;SDS011;35340;52.378;4.648;2022-08-21T01:37:33;6.28;;;2.40;;
48941;SDS011;35340;52.378;4.648;2022-08-21T01:39:58;5.38;;;2.58;;
48941;SDS011;35340;52.378;4.648;2022-08-21T01:42:24;6.50;;;2.63;;
48941;SDS011;35340;52.378;4.648;2022-08-21T01:44:49;6.63;;;2.70;;
48941;SDS011;35340;52.378;4.648;2022-08-21T01:47:15;6.18;;;2.75;;
48941;SDS011;35340;52.378;4.648;2022-08-21T01:49:42;6.03;;;2.63;;
48941;SDS011;35340;52.378;4.648;2022-08-21T01:52:08;5.43;;;2.50;;
48941;SDS011;35340;52.378;4.648;2022-08-21T01:54:34;8.48;;;2.80;;
48941;SDS011;35340;52.378;4.648;2022-08-21T01:57:01;6.90;;;2.42;;
48941;SDS011;35340;52.378;4.648;2022-08-21T01:59:27;4.32;;;2.38;;
48941;SDS011;35340;52.378;4.648;2022-08-21T02:01:52;7.78;;;2.63;;
48941;SDS011;35340;52.378;4.648;2022-08-21T02:04:22;4.43;;;2.33;;
48941;SDS011;35340;52.378;4.648;2022-08-21T02:06:47;4.95;;;2.50;;
48941;SDS011;35340;52.378;4.648;2022-08-21T02:09:13;5.38;;;2.58;;
48941;SDS011;35340;52.378;4.648;2022-08-21T02:11:42;6.45;;;2.45;;
48941;SDS011;35340;52.378;4.648;2022-08-21T02:14:08;6.68;;;2.33;;
48941;SDS011;35340;52.378;4.648;2022-08-21T02:16:39;6.32;;;2.50;;
48941;SDS011;35340;52.378;4.648;2022-08-21T02:19:06;4.85;;;2.35;;
48941;SDS011;35340;52.378;4.648;2022-08-21T02:21:32;6.40;;;2.35;;
48941;SDS011;35340;52.378;4.648;2022-08-21T02:23:57;5.00;;;2.25;;
48941;SDS011;35340;52.378;4.648;2022-08-21T02:26:23;5.38;;;2.28;;
48941;SDS011;35340;52.378;4.648;2022-08-21T02:28:49;6.38;;;2.38;;
48941;SDS011;35340;52.378;4.648;2022-08-21T02:31:14;5.50;;;2.05;;
48941;SDS011;35340;52.378;4.648;2022-08-21T02:33:40;4.80;;;2.35;;
48941;SDS011;35340;52.378;4.648;2022-08-21T02:36:06;5.85;;;2.10;;
48941;SDS011;35340;52.378;4.648;2022-08-21T02:38:33;5.78;;;2.25;;
48941;SDS011;35340;52.378;4.648;2022-08-21T02:41:03;5.90;;;2.20;;
48941;SDS011;35340;52.378;4.648;2022-08-21T02:43:29;6.05;;;2.30;;
48941;SDS011;35340;52.378;4.648;2022-08-21T02:45:55;6.47;;;2.30;;
48941;SDS011;35340;52.378;4.648;2022-08-21T02:48:23;8.52;;;2.20;;
48941;SDS011;35340;52.378;4.648;2022-08-21T02:50:52;5.93;;;2.15;;
48941;SDS011;35340;52.378;4.648;2022-08-21T02:53:21;6.95;;;2.03;;
48941;SDS011;35340;52.378;4.648;2022-08-21T02:55:48;5.97;;;2.45;;
48941;SDS011;35340;52.378;4.648;2022-08-21T02:58:16;5.78;;;2.40;;
48941;SDS011;35340;52.378;4.648;2022-08-21T03:00:42;4.65;;;2.13;;
48941;SDS011;35340;52.378;4.648;2022-08-21T03:03:08;6.43;;;2.08;;
48941;SDS011;35340;52.378;4.648;2022-08-21T03:05:35;5.47;;;2.10;;
48941;SDS011;35340;52.378;4.648;2022-08-21T03:08:04;8.10;;;2.17;;
48941;SDS011;35340;52.378;4.648;2022-08-21T03:10:34;5.40;;;2.53;;
48941;SDS011;35340;52.378;4.648;2022-08-21T03:13:00;6.75;;;2.50;;
48941;SDS011;35340;52.378;4.648;2022-08-21T03:15:28;4.50;;;2.03;;
48941;SDS011;35340;52.378;4.648;2022-08-21T03:17:54;7.50;;;2.25;;
48941;SDS011;35340;52.378;4.648;2022-08-21T03:20:21;3.78;;;1.92;;
48941;SDS011;35340;52.378;4.648;2022-08-21T03:22:49;5.32;;;2.05;;
48941;SDS011;35340;52.378;4.648;2022-08-21T03:25:15;4.82;;;1.90;;
48941;SDS011;35340;52.378;4.648;2022-08-21T03:27:41;6.72;;;2.17;;
48941;SDS011;35340;52.378;4.648;2022-08-21T03:30:07;7.15;;;2.20;;
48941;SDS011;35340;52.378;4.648;2022-08-21T03:32:33;5.15;;;2.40;;
48941;SDS011;35340;52.378;4.648;2022-08-21T03:35:01;8.95;;;2.42;;
48941;SDS011;35340;52.378;4.648;2022-08-21T03:37:27;6.28;;;2.10;;
48941;SDS011;35340;52.378;4.648;2022-08-21T03:39:53;5.25;;;2.28;;
48941;SDS011;35340;52.378;4.648;2022-08-21T03:42:18;6.47;;;2.30;;
48941;SDS011;35340;52.378;4.648;2022-08-21T03:44:44;5.97;;;2.13;;
48941;SDS011;35340;52.378;4.648;2022-08-21T03:47:10;6.20;;;1.90;;
48941;SDS011;35340;52.378;4.648;2022-08-21T03:49:35;5.32;;;2.10;;
48941;SDS011;35340;52.378;4.648;2022-08-21T03:52:01;7.28;;;2.28;;
48941;SDS011;35340;52.378;4.648;2022-08-21T03:54:27;6.72;;;2.20;;
48941;SDS011;35340;52.378;4.648;2022-08-21T03:56:53;5.50;;;2.20;;
48941;SDS011;35340;52.378;4.648;2022-08-21T03:59:18;6.05;;;2.13;;
48941;SDS011;35340;52.378;4.648;2022-08-21T04:01:51;6.18;;;2.33;;
48941;SDS011;35340;52.378;4.648;2022-08-21T04:04:26;7.97;;;1.98;;
48941;SDS011;35340;52.378;4.648;2022-08-21T04:06:53;6.03;;;2.03;;
48941;SDS011;35340;52.378;4.648;2022-08-21T04:09:19;4.72;;;2.20;;
48941;SDS011;35340;52.378;4.648;2022-08-21T04:11:44;7.13;;;1.98;;
48941;SDS011;35340;52.378;4.648;2022-08-21T04:14:12;8.27;;;2.33;;
48941;SDS011;35340;52.378;4.648;2022-08-21T04:16:39;7.90;;;2.15;;
48941;SDS011;35340;52.378;4.648;2022-08-21T04:19:05;4.47;;;1.90;;
48941;SDS011;35340;52.378;4.648;2022-08-21T04:21:31;6.95;;;2.05;;
48941;SDS011;35340;52.378;4.648;2022-08-21T04:23:57;4.93;;;2.00;;
48941;SDS011;35340;52.378;4.648;2022-08-21T04:26:22;6.20;;;2.08;;
48941;SDS011;35340;52.378;4.648;2022-08-21T04:28:48;6.95;;;2.28;;
48941;SDS011;35340;52.378;4.648;2022-08-21T04:31:13;6.00;;;1.95;;
48941;SDS011;35340;52.378;4.648;2022-08-21T04:33:38;5.32;;;2.10;;
48941;SDS011;35340;52.378;4.648;2022-08-21T04:36:07;4.07;;;1.80;;
48941;SDS011;35340;52.378;4.648;2022-08-21T04:38:33;5.82;;;2.30;;
48941;SDS011;35340;52.378;4.648;2022-08-21T04:40:59;5.00;;;2.13;;
48941;SDS011;35340;52.378;4.648;2022-08-21T04:43:25;8.02;;;2.17;;
48941;SDS011;35340;52.378;4.648;2022-08-21T04:45:51;6.45;;;2.17;;
48941;SDS011;35340;52.378;4.648;2022-08-21T04:48:19;5.78;;;2.17;;
48941;SDS011;35340;52.378;4.648;2022-08-21T04:56:14;6.72;;;2.30;;
48941;SDS011;35340;52.378;4.648;2022-08-21T04:58:42;8.18;;;2.40;;
48941;SDS011;35340;52.378;4.648;2022-08-21T05:01:09;7.25;;;2.33;;
48941;SDS011;35340;52.378;4.648;2022-08-21T05:03:38;8.00;;;2.05;;
48941;SDS011;35340;52.378;4.648;2022-08-21T05:06:08;6.47;;;2.15;;
48941;SDS011;35340;52.378;4.648;2022-08-21T05:08:35;4.95;;;2.05;;
48941;SDS011;35340;52.378;4.648;2022-08-21T05:11:03;4.32;;;2.08;;
48941;SDS011;35340;52.378;4.648;2022-08-21T05:13:28;4.97;;;2.35;;
48941;SDS011;35340;52.378;4.648;2022-08-21T05:15:54;5.80;;;2.35;;
48941;SDS011;35340;52.378;4.648;2022-08-21T05:18:20;7.20;;;2.35;;
48941;SDS011;35340;52.378;4.648;2022-08-21T05:20:46;8.77;;;2.50;;
48941;SDS011;35340;52.378;4.648;2022-08-21T05:23:12;6.05;;;2.25;;
48941;SDS011;35340;52.378;4.648;2022-08-21T05:25:39;8.48;;;2.63;;
48941;SDS011;35340;52.378;4.648;2022-08-21T05:28:05;4.43;;;2.15;;
48941;SDS011;35340;52.378;4.648;2022-08-21T05:30:31;5.43;;;2.15;;
48941;SDS011;35340;52.378;4.648;2022-08-21T05:32:58;8.65;;;2.40;;
48941;SDS011;35340;52.378;4.648;2022-08-21T05:35:25;6.40;;;2.10;;
48941;SDS011;35340;52.378;4.648;2022-08-21T05:37:51;6.88;;;2.15;;
48941;SDS011;35340;52.378;4.648;2022-08-21T05:40:16;5.45;;;2.22;;
48941;SDS011;35340;52.378;4.648;2022-08-21T05:42:42;5.80;;;2.45;;
48941;SDS011;35340;52.378;4.648;2022-08-21T05:45:07;5.30;;;1.70;;
48941;SDS011;35340;52.378;4.648;2022-08-21T05:47:33;6.68;;;2.55;;
48941;SDS011;35340;52.378;4.648;2022-08-21T05:49:58;5.30;;;2.67;;
48941;SDS011;35340;52.378;4.648;2022-08-21T05:52:23;8.60;;;3.00;;
48941;SDS011;35340;52.378;4.648;2022-08-21T05:54:49;8.00;;;3.05;;
48941;SDS011;35340;52.378;4.648;2022-08-21T05:57:14;7.75;;;3.15;;
48941;SDS011;35340;52.378;4.648;2022-08-21T05:59:40;9.82;;;3.50;;
48941;SDS011;35340;52.378;4.648;2022-08-21T06:02:05;11.05;;;3.97;;
48941;SDS011;35340;52.378;4.648;2022-08-21T06:04:35;16.80;;;4.53;;
48941;SDS011;35340;52.378;4.648;2022-08-21T06:07:01;11.23;;;3.75;;
48941;SDS011;35340;52.378;4.648;2022-08-21T06:09:27;9.43;;;4.20;;
48941;SDS011;35340;52.378;4.648;2022-08-21T06:11:52;11.23;;;4.15;;
48941;SDS011;35340;52.378;4.648;2022-08-21T06:14:17;11.90;;;4.30;;
48941;SDS011;35340;52.378;4.648;2022-08-21T06:16:43;10.20;;;3.90;;
48941;SDS011;35340;52.378;4.648;2022-08-21T06:19:11;13.65;;;4.07;;
48941;SDS011;35340;52.378;4.648;2022-08-21T06:21:37;14.18;;;3.95;;
48941;SDS011;35340;52.378;4.648;2022-08-21T06:24:03;11.00;;;3.97;;
48941;SDS011;35340;52.378;4.648;2022-08-21T06:26:29;10.55;;;4.05;;
48941;SDS011;35340;52.378;4.648;2022-08-21T06:28:55;14.25;;;4.00;;
48941;SDS011;35340;52.378;4.648;2022-08-21T06:31:24;14.23;;;4.18;;
48941;SDS011;35340;52.378;4.648;2022-08-21T06:33:51;14.38;;;4.07;;
48941;SDS011;35340;52.378;4.648;2022-08-21T06:36:18;13.10;;;3.85;;
48941;SDS011;35340;52.378;4.648;2022-08-21T06:38:44;13.77;;;4.05;;
48941;SDS011;35340;52.378;4.648;2022-08-21T06:41:10;18.90;;;4.25;;
48941;SDS011;35340;52.378;4.648;2022-08-21T06:43:36;15.98;;;4.10;;
48941;SDS011;35340;52.378;4.648;2022-08-21T06:46:01;12.95;;;3.75;;
48941;SDS011;35340;52.378;4.648;2022-08-21T06:48:27;13.98;;;4.30;;
48941;SDS011;35340;52.378;4.648;2022-08-21T06:50:57;12.77;;;3.97;;
48941;SDS011;35340;52.378;4.648;2022-08-21T06:53:24;15.27;;;3.80;;
48941;SDS011;35340;52.378;4.648;2022-08-21T06:55:49;15.02;;;3.90;;
48941;SDS011;35340;52.378;4.648;2022-08-21T06:58:14;15.13;;;3.88;;
48941;SDS011;35340;52.378;4.648;2022-08-21T07:00:42;12.55;;;3.97;;
48941;SDS011;35340;52.378;4.648;2022-08-21T07:05:42;11.30;;;3.45;;
48941;SDS011;35340;52.378;4.648;2022-08-21T07:08:07;11.60;;;3.80;;
48941;SDS011;35340;52.378;4.648;2022-08-21T07:10:32;14.52;;;4.18;;
48941;SDS011;35340;52.378;4.648;2022-08-21T07:12:59;12.90;;;3.72;;
48941;SDS011;35340;52.378;4.648;2022-08-21T07:15:24;11.02;;;3.28;;
48941;SDS011;35340;52.378;4.648;2022-08-21T07:17:50;11.38;;;3.40;;
48941;SDS011;35340;52.378;4.648;2022-08-21T07:20:15;12.63;;;3.10;;
48941;SDS011;35340;52.378;4.648;2022-08-21T07:22:41;12.52;;;3.33;;
48941;SDS011;35340;52.378;4.648;2022-08-21T07:25:07;11.23;;;3.15;;
48941;SDS011;35340;52.378;4.648;2022-08-21T07:27:33;11.27;;;3.13;;
48941;SDS011;35340;52.378;4.648;2022-08-21T07:29:59;12.82;;;3.20;;
48941;SDS011;35340;52.378;4.648;2022-08-21T07:32:24;11.35;;;3.13;;
48941;SDS011;35340;52.378;4.648;2022-08-21T07:34:49;15.60;;;3.20;;
48941;SDS011;35340;52.378;4.648;2022-08-21T07:37:15;13.73;;;3.33;;
48941;SDS011;35340;52.378;4.648;2022-08-21T07:39:40;11.65;;;3.08;;
48941;SDS011;35340;52.378;4.648;2022-08-21T07:42:06;13.18;;;3.42;;
48941;SDS011;35340;52.378;4.648;2022-08-21T07:44:31;11.38;;;2.97;;
48941;SDS011;35340;52.378;4.648;2022-08-21T07:46:59;12.20;;;3.20;;
48941;SDS011;35340;52.378;4.648;2022-08-21T07:49:25;13.68;;;3.10;;
48941;SDS011;35340;52.378;4.648;2022-08-21T07:51:52;9.43;;;2.78;;
48941;SDS011;35340;52.378;4.648;2022-08-21T07:54:38;10.25;;;2.95;;
48941;SDS011;35340;52.378;4.648;2022-08-21T07:57:03;12.38;;;3.10;;
48941;SDS011;35340;52.378;4.648;2022-08-21T07:59:29;12.52;;;2.85;;
48941;SDS011;35340;52.378;4.648;2022-08-21T08:01:57;10.07;;;3.08;;
48941;SDS011;35340;52.378;4.648;2022-08-21T08:04:22;12.15;;;3.25;;
48941;SDS011;35340;52.378;4.648;2022-08-21T08:06:51;14.38;;;3.20;;
48941;SDS011;35340;52.378;4.648;2022-08-21T08:11:42;14.75;;;3.05;;
48941;SDS011;35340;52.378;4.648;2022-08-21T08:14:10;21.58;;;3.30;;
48941;SDS011;35340;52.378;4.648;2022-08-21T08:16:35;10.80;;;2.85;;
48941;SDS011;35340;52.378;4.648;2022-08-21T08:19:01;18.67;;;3.45;;
48941;SDS011;35340;52.378;4.648;2022-08-21T08:21:27;12.43;;;2.95;;
48941;SDS011;35340;52.378;4.648;2022-08-21T08:23:53;12.48;;;3.20;;
48941;SDS011;35340;52.378;4.648;2022-08-21T08:26:19;12.50;;;3.17;;
48941;SDS011;35340;52.378;4.648;2022-08-21T08:28:44;12.02;;;3.50;;
48941;SDS011;35340;52.378;4.648;2022-08-21T08:31:12;11.10;;;2.90;;
48941;SDS011;35340;52.378;4.648;2022-08-21T08:33:38;11.40;;;2.95;;
48941;SDS011;35340;52.378;4.648;2022-08-21T08:36:04;11.48;;;2.90;;
48941;SDS011;35340;52.378;4.648;2022-08-21T08:38:30;13.65;;;2.83;;
48941;SDS011;35340;52.378;4.648;2022-08-21T08:41:15;11.57;;;3.13;;
48941;SDS011;35340;52.378;4.648;2022-08-21T08:43:42;12.38;;;2.97;;
48941;SDS011;35340;52.378;4.648;2022-08-21T08:46:15;11.43;;;3.08;;
48941;SDS011;35340;52.378;4.648;2022-08-21T08:48:55;14.63;;;3.10;;
48941;SDS011;35340;52.378;4.648;2022-08-21T08:54:04;11.00;;;2.95;;
48941;SDS011;35340;52.378;4.648;2022-08-21T08:56:36;9.75;;;3.20;;
48941;SDS011;35340;52.378;4.648;2022-08-21T08:59:09;10.35;;;3.05;;
48941;SDS011;35340;52.378;4.648;2022-08-21T09:01:41;10.40;;;3.17;;
48941;SDS011;35340;52.378;4.648;2022-08-21T09:04:07;11.18;;;3.05;;
48941;SDS011;35340;52.378;4.648;2022-08-21T09:06:42;11.02;;;2.88;;
48941;SDS011;35340;52.378;4.648;2022-08-21T09:09:24;10.32;;;3.22;;
48941;SDS011;35340;52.378;4.648;2022-08-21T09:12:02;11.25;;;2.90;;
48941;SDS011;35340;52.378;4.648;2022-08-21T09:17:39;11.40;;;2.88;;
48941;SDS011;35340;52.378;4.648;2022-08-21T09:25:27;12.15;;;2.80;;
48941;SDS011;35340;52.378;4.648;2022-08-21T09:27:56;10.32;;;2.53;;
48941;SDS011;35340;52.378;4.648;2022-08-21T09:30:30;8.93;;;2.72;;
48941;SDS011;35340;52.378;4.648;2022-08-21T09:32:57;9.00;;;2.58;;
48941;SDS011;35340;52.378;4.648;2022-08-21T09:35:23;9.82;;;2.72;;
48941;SDS011;35340;52.378;4.648;2022-08-21T09:40:44;8.73;;;2.75;;
48941;SDS011;35340;52.378;4.648;2022-08-21T09:45:42;10.02;;;2.65;;
48941;SDS011;35340;52.378;4.648;2022-08-21T09:50:36;7.40;;;2.28;;
48941;SDS011;35340;52.378;4.648;2022-08-21T09:53:03;9.93;;;2.58;;
48941;SDS011;35340;52.378;4.648;2022-08-21T09:55:31;9.40;;;2.50;;
48941;SDS011;35340;52.378;4.648;2022-08-21T09:58:29;7.38;;;2.50;;
48941;SDS011;35340;52.378;4.648;2022-08-21T10:00:58;13.77;;;2.70;;
48941;SDS011;35340;52.378;4.648;2022-08-21T10:03:25;34.17;;;11.10;;
48941;SDS011;35340;52.378;4.648;2022-08-21T10:05:57;22.98;;;5.45;;
48941;SDS011;35340;52.378;4.648;2022-08-21T10:08:30;16.70;;;4.60;;
48941;SDS011;35340;52.378;4.648;2022-08-21T10:11:01;16.88;;;4.50;;
48941;SDS011;35340;52.378;4.648;2022-08-21T10:16:21;11.30;;;3.90;;
48941;SDS011;35340;52.378;4.648;2022-08-21T10:18:56;13.90;;;4.22;;
48941;SDS011;35340;52.378;4.648;2022-08-21T10:29:52;9.60;;;3.63;;
48941;SDS011;35340;52.378;4.648;2022-08-21T10:48:37;8.82;;;2.92;;
48941;SDS011;35340;52.378;4.648;2022-08-21T10:51:15;10.63;;;3.15;;
48941;SDS011;35340;52.378;4.648;2022-08-21T10:56:36;9.07;;;2.95;;
48941;SDS011;35340;52.378;4.648;2022-08-21T11:09:52;8.57;;;2.92;;
48941;SDS011;35340;52.378;4.648;2022-08-21T11:12:46;7.35;;;2.80;;
48941;SDS011;35340;52.378;4.648;2022-08-21T11:17:43;5.32;;;2.45;;
48941;SDS011;35340;52.378;4.648;2022-08-21T11:22:54;5.53;;;2.38;;
48941;SDS011;35340;52.378;4.648;2022-08-21T11:25:32;9.02;;;2.58;;
48941;SDS011;35340;52.378;4.648;2022-08-21T11:36:12;5.57;;;2.42;;
48941;SDS011;35340;52.378;4.648;2022-08-21T11:38:46;5.60;;;2.15;;
48941;SDS011;35340;52.378;4.648;2022-08-21T11:41:39;5.10;;;2.13;;
48941;SDS011;35340;52.378;4.648;2022-08-21T11:54:51;7.28;;;2.40;;
48941;SDS011;35340;52.378;4.648;2022-08-21T11:57:40;4.60;;;2.17;;
48941;SDS011;35340;52.378;4.648;2022-08-21T12:00:30;6.57;;;2.35;;
48941;SDS011;35340;52.378;4.648;2022-08-21T12:03:09;5.85;;;2.28;;
48941;SDS011;35340;52.378;4.648;2022-08-21T12:06:12;6.32;;;2.15;;
48941;SDS011;35340;52.378;4.648;2022-08-21T12:08:39;4.78;;;2.00;;
48941;SDS011;35340;52.378;4.648;2022-08-21T12:16:44;5.47;;;2.22;;
48941;SDS011;35340;52.378;4.648;2022-08-21T12:19:32;5.75;;;2.30;;
48941;SDS011;35340;52.378;4.648;2022-08-21T12:24:41;5.97;;;2.40;;
48941;SDS011;35340;52.378;4.648;2022-08-21T12:34:38;4.55;;;2.08;;
48941;SDS011;35340;52.378;4.648;2022-08-21T12:37:09;5.05;;;1.95;;
48941;SDS011;35340;52.378;4.648;2022-08-21T12:39:42;4.20;;;1.88;;
48941;SDS011;35340;52.378;4.648;2022-08-21T12:42:17;6.47;;;2.45;;
48941;SDS011;35340;52.378;4.648;2022-08-21T12:44:44;6.35;;;2.45;;
48941;SDS011;35340;52.378;4.648;2022-08-21T12:52:40;4.10;;;1.92;;
48941;SDS011;35340;52.378;4.648;2022-08-21T12:55:14;5.15;;;1.95;;
48941;SDS011;35340;52.378;4.648;2022-08-21T12:57:42;4.45;;;1.92;;
48941;SDS011;35340;52.378;4.648;2022-08-21T13:00:09;4.18;;;2.00;;
48941;SDS011;35340;52.378;4.648;2022-08-21T13:05:13;3.58;;;1.95;;
48941;SDS011;35340;52.378;4.648;2022-08-21T13:07:46;3.45;;;1.83;;
48941;SDS011;35340;52.378;4.648;2022-08-21T13:10:28;5.68;;;2.08;;
48941;SDS011;35340;52.378;4.648;2022-08-21T13:12:58;5.75;;;2.10;;
48941;SDS011;35340;52.378;4.648;2022-08-21T13:15:30;4.90;;;1.85;;
48941;SDS011;35340;52.378;4.648;2022-08-21T13:18:04;5.15;;;2.00;;
48941;SDS011;35340;52.378;4.648;2022-08-21T13:20:32;4.80;;;1.90;;
48941;SDS011;35340;52.378;4.648;2022-08-21T13:23:03;4.90;;;1.95;;
48941;SDS011;35340;52.378;4.648;2022-08-21T13:25:40;4.68;;;1.92;;
48941;SDS011;35340;52.378;4.648;2022-08-21T13:28:10;5.47;;;2.00;;
48941;SDS011;35340;52.378;4.648;2022-08-21T13:30:53;4.95;;;1.85;;
48941;SDS011;35340;52.378;4.648;2022-08-21T13:33:21;3.78;;;1.63;;
48941;SDS011;35340;52.378;4.648;2022-08-21T13:35:50;3.88;;;1.83;;
48941;SDS011;35340;52.378;4.648;2022-08-21T13:38:33;4.90;;;2.00;;
48941;SDS011;35340;52.378;4.648;2022-08-21T13:43:45;4.35;;;1.85;;
48941;SDS011;35340;52.378;4.648;2022-08-21T13:46:15;4.40;;;1.60;;
48941;SDS011;35340;52.378;4.648;2022-08-21T13:48:42;3.50;;;1.73;;
48941;SDS011;35340;52.378;4.648;2022-08-21T13:51:08;4.15;;;1.77;;
48941;SDS011;35340;52.378;4.648;2022-08-21T13:56:06;6.32;;;2.03;;
48941;SDS011;35340;52.378;4.648;2022-08-21T13:58:33;4.20;;;1.95;;
48941;SDS011;35340;52.378;4.648;2022-08-21T14:01:15;4.13;;;1.55;;
48941;SDS011;35340;52.378;4.648;2022-08-21T14:03:42;4.47;;;1.88;;
48941;SDS011;35340;52.378;4.648;2022-08-21T14:06:11;4.60;;;1.80;;
48941;SDS011;35340;52.378;4.648;2022-08-21T14:08:39;4.57;;;1.90;;
48941;SDS011;35340;52.378;4.648;2022-08-21T14:11:12;11.85;;;2.90;;
48941;SDS011;35340;52.378;4.648;2022-08-21T14:13:45;10.20;;;3.10;;
48941;SDS011;35340;52.378;4.648;2022-08-21T14:18:43;9.48;;;2.67;;
48941;SDS011;35340;52.378;4.648;2022-08-21T14:23:42;11.85;;;3.30;;
48941;SDS011;35340;52.378;4.648;2022-08-21T14:26:08;10.05;;;2.70;;
48941;SDS011;35340;52.378;4.648;2022-08-21T14:28:42;11.00;;;2.95;;
48941;SDS011;35340;52.378;4.648;2022-08-21T14:31:16;10.65;;;3.25;;
48941;SDS011;35340;52.378;4.648;2022-08-21T14:33:42;9.63;;;3.03;;
48941;SDS011;35340;52.378;4.648;2022-08-21T14:36:08;10.63;;;3.10;;
48941;SDS011;35340;52.378;4.648;2022-08-21T14:38:35;8.90;;;2.90;;
48941;SDS011;35340;52.378;4.648;2022-08-21T14:43:43;10.48;;;2.70;;
48941;SDS011;35340;52.378;4.648;2022-08-21T14:46:09;13.38;;;2.80;;
48941;SDS011;35340;52.378;4.648;2022-08-21T14:48:36;10.88;;;3.45;;
48941;SDS011;35340;52.378;4.648;2022-08-21T14:51:02;9.25;;;2.55;;
48941;SDS011;35340;52.378;4.648;2022-08-21T14:53:27;8.55;;;2.30;;
48941;SDS011;35340;52.378;4.648;2022-08-21T14:55:55;8.43;;;2.30;;
48941;SDS011;35340;52.378;4.648;2022-08-21T14:58:29;10.13;;;3.10;;
48941;SDS011;35340;52.378;4.648;2022-08-21T15:00:55;7.25;;;2.40;;
48941;SDS011;35340;52.378;4.648;2022-08-21T15:03:23;9.48;;;2.40;;
48941;SDS011;35340;52.378;4.648;2022-08-21T15:05:49;8.13;;;2.60;;
48941;SDS011;35340;52.378;4.648;2022-08-21T15:08:15;13.18;;;2.42;;
48941;SDS011;35340;52.378;4.648;2022-08-21T15:10:41;9.13;;;2.60;;
48941;SDS011;35340;52.378;4.648;2022-08-21T15:13:06;9.27;;;2.53;;
48941;SDS011;35340;52.378;4.648;2022-08-21T15:15:35;7.80;;;2.35;;
48941;SDS011;35340;52.378;4.648;2022-08-21T15:18:05;8.93;;;2.67;;
48941;SDS011;35340;52.378;4.648;2022-08-21T15:20:30;7.93;;;2.33;;
48941;SDS011;35340;52.378;4.648;2022-08-21T15:22:56;8.00;;;2.10;;
48941;SDS011;35340;52.378;4.648;2022-08-21T15:25:22;11.15;;;3.65;;
48941;SDS011;35340;52.378;4.648;2022-08-21T15:27:47;8.02;;;2.50;;
48941;SDS011;35340;52.378;4.648;2022-08-21T15:30:13;8.85;;;2.90;;
48941;SDS011;35340;52.378;4.648;2022-08-21T15:32:39;9.13;;;2.65;;
48941;SDS011;35340;52.378;4.648;2022-08-21T15:35:05;8.00;;;2.55;;
48941;SDS011;35340;52.378;4.648;2022-08-21T15:37:30;5.63;;;2.38;;
48941;SDS011;35340;52.378;4.648;2022-08-21T15:39:56;8.02;;;2.60;;
48941;SDS011;35340;52.378;4.648;2022-08-21T15:42:21;8.88;;;2.28;;
48941;SDS011;35340;52.378;4.648;2022-08-21T15:44:48;6.45;;;2.15;;
48941;SDS011;35340;52.378;4.648;2022-08-21T15:47:16;10.80;;;2.42;;
48941;SDS011;35340;52.378;4.648;2022-08-21T15:49:42;8.35;;;2.60;;
48941;SDS011;35340;52.378;4.648;2022-08-21T15:52:10;6.53;;;2.25;;
48941;SDS011;35340;52.378;4.648;2022-08-21T15:54:39;9.35;;;2.75;;
48941;SDS011;35340;52.378;4.648;2022-08-21T15:57:05;9.68;;;2.90;;
48941;SDS011;35340;52.378;4.648;2022-08-21T15:59:38;10.02;;;2.80;;
48941;SDS011;35340;52.378;4.648;2022-08-21T16:02:14;9.18;;;2.90;;
48941;SDS011;35340;52.378;4.648;2022-08-21T16:04:42;9.02;;;2.40;;
48941;SDS011;35340;52.378;4.648;2022-08-21T16:07:08;7.68;;;2.40;;
48941;SDS011;35340;52.378;4.648;2022-08-21T16:09:37;8.23;;;2.33;;
48941;SDS011;35340;52.378;4.648;2022-08-21T16:12:04;7.43;;;2.50;;
48941;SDS011;35340;52.378;4.648;2022-08-21T16:14:30;10.82;;;2.70;;
48941;SDS011;35340;52.378;4.648;2022-08-21T16:16:58;8.07;;;2.40;;
48941;SDS011;35340;52.378;4.648;2022-08-21T16:19:23;13.77;;;2.40;;
48941;SDS011;35340;52.378;4.648;2022-08-21T16:21:50;10.43;;;3.00;;
48941;SDS011;35340;52.378;4.648;2022-08-21T16:24:16;12.07;;;4.20;;
48941;SDS011;35340;52.378;4.648;2022-08-21T16:26:41;10.25;;;3.25;;
48941;SDS011;35340;52.378;4.648;2022-08-21T16:29:07;11.07;;;2.63;;
48941;SDS011;35340;52.378;4.648;2022-08-21T16:31:33;10.93;;;2.60;;
48941;SDS011;35340;52.378;4.648;2022-08-21T16:33:59;10.18;;;2.47;;
48941;SDS011;35340;52.378;4.648;2022-08-21T16:36:26;8.52;;;2.60;;
48941;SDS011;35340;52.378;4.648;2022-08-21T16:38:52;11.18;;;2.30;;
48941;SDS011;35340;52.378;4.648;2022-08-21T16:41:18;8.48;;;1.98;;
48941;SDS011;35340;52.378;4.648;2022-08-21T16:43:47;13.68;;;2.50;;
48941;SDS011;35340;52.378;4.648;2022-08-21T16:46:14;10.00;;;2.53;;
48941;SDS011;35340;52.378;4.648;2022-08-21T16:48:41;11.52;;;2.45;;
48941;SDS011;35340;52.378;4.648;2022-08-21T16:51:11;12.82;;;2.72;;
48941;SDS011;35340;52.378;4.648;2022-08-21T16:53:38;16.77;;;3.67;;
48941;SDS011;35340;52.378;4.648;2022-08-21T16:56:04;13.18;;;3.58;;
48941;SDS011;35340;52.378;4.648;2022-08-21T16:58:31;15.27;;;3.88;;
48941;SDS011;35340;52.378;4.648;2022-08-21T17:00:58;11.50;;;2.80;;